Time;durP1;ratioP1;P1;durP2;ratioP2;P2;SDS_P1;SDS_P2;PMS_P1;PMS_P2;Temp;Humidity;BMP_temperature;BMP_pressure;BME280_temperature;BME280_humidity;BME280_pressure;Samples;Min_cycle;Max_cycle;Signal;HPM_P1;HPM_P2
2022/03/08 00:02:23;;;;;;;1999.90;999.90;;;5.80;51.80;;;;;;4977120;28;20034;-91
2022/03/08 00:04:49;;;;;;;1999.90;999.90;;;5.70;51.70;;;;;;4978718;28;20034;-92
2022/03/08 00:07:16;;;;;;;1999.90;999.90;;;5.70;51.70;;;;;;4980126;28;20075;-91
2022/03/08 00:09:43;;;;;;;1999.90;999.90;;;5.70;51.80;;;;;;4979118;28;20026;-91
2022/03/08 00:12:10;;;;;;;1999.90;999.90;;;5.70;51.80;;;;;;4981702;28;20435;-91
2022/03/08 00:14:36;;;;;;;1999.90;999.90;;;5.70;51.80;;;;;;4963513;28;20027;-91
2022/03/08 00:17:02;;;;;;;1999.90;999.90;;;5.70;51.80;;;;;;4979789;28;20046;-92
2022/03/08 00:19:28;;;;;;;1999.90;999.90;;;5.70;51.80;;;;;;4977102;28;20373;-92
2022/03/08 00:21:55;;;;;;;1999.90;999.90;;;5.70;51.90;;;;;;4971705;28;20484;-91
2022/03/08 00:24:21;;;;;;;1999.90;999.90;;;5.70;52.00;;;;;;4958802;28;20396;-90
2022/03/08 00:26:47;;;;;;;1999.90;999.90;;;5.60;52.00;;;;;;4972432;28;20037;-91
2022/03/08 00:29:13;;;;;;;1999.90;999.90;;;5.60;52.00;;;;;;4958574;28;20050;-90
2022/03/08 00:31:39;;;;;;;1999.90;999.90;;;5.60;52.10;;;;;;4975497;28;20042;-92
2022/03/08 00:34:06;;;;;;;1999.90;999.90;;;5.60;52.10;;;;;;4954724;28;20405;-91
2022/03/08 00:36:32;;;;;;;1999.90;999.90;;;5.60;52.20;;;;;;4964320;28;20046;-91
2022/03/08 00:38:58;;;;;;;1999.90;999.90;;;5.60;52.20;;;;;;4977910;28;20050;-91
2022/03/08 00:41:25;;;;;;;1999.90;999.90;;;5.50;52.20;;;;;;4972278;28;20503;-91
2022/03/08 00:43:51;;;;;;;1999.90;999.90;;;5.50;52.20;;;;;;4974419;28;20477;-92
2022/03/08 00:46:17;;;;;;;1999.90;999.90;;;5.50;52.30;;;;;;4972113;28;20046;-91
2022/03/08 00:48:44;;;;;;;1999.90;999.90;;;5.50;52.30;;;;;;4966570;28;20027;-91
2022/03/08 00:51:11;;;;;;;1999.90;999.90;;;5.50;52.40;;;;;;4971032;28;20408;-92
2022/03/08 00:53:37;;;;;;;1999.90;999.90;;;5.50;52.40;;;;;;4975907;28;20030;-91
2022/03/08 00:56:03;;;;;;;1999.90;999.90;;;5.50;52.40;;;;;;4973773;28;20030;-92
2022/03/08 00:58:29;;;;;;;1999.90;999.90;;;5.50;52.50;;;;;;4958117;28;20488;-91
2022/03/08 01:00:56;;;;;;;1999.90;999.90;;;5.50;52.50;;;;;;4957127;28;20034;-92
2022/03/08 01:03:22;;;;;;;1999.90;999.90;;;5.40;52.50;;;;;;4957282;28;20031;-92
2022/03/08 01:05:48;;;;;;;1999.90;999.90;;;5.40;52.50;;;;;;4975630;28;20027;-90
2022/03/08 01:08:14;;;;;;;1999.90;999.90;;;5.40;52.60;;;;;;4950681;28;20480;-91
2022/03/08 01:10:40;;;;;;;1999.90;999.90;;;5.40;52.60;;;;;;4969348;28;20046;-91
2022/03/08 01:13:06;;;;;;;1999.90;999.90;;;5.40;52.60;;;;;;4966432;28;20027;-92
2022/03/08 01:15:32;;;;;;;1999.90;999.90;;;5.40;52.70;;;;;;4999743;28;20027;-91
2022/03/08 01:17:59;;;;;;;1999.90;999.90;;;5.30;52.70;;;;;;4983401;28;20027;-90
2022/03/08 01:20:25;;;;;;;1999.90;999.90;;;5.30;53.30;;;;;;4994218;28;20035;-93
2022/03/08 01:22:51;;;;;;;1999.90;999.90;;;5.30;52.70;;;;;;4958582;28;20039;-91
2022/03/08 01:25:20;;;;;;;1999.90;999.90;;;5.30;52.80;;;;;;4995746;28;20038;-91
2022/03/08 01:27:47;;;;;;;1999.90;999.90;;;5.30;52.80;;;;;;4998245;28;20046;-91
2022/03/08 01:30:14;;;;;;;1999.90;999.90;;;5.30;52.90;;;;;;4983780;28;20029;-89
2022/03/08 01:32:42;;;;;;;1999.90;999.90;;;5.20;52.90;;;;;;4960668;28;20527;-90
2022/03/08 01:35:08;;;;;;;1999.90;999.90;;;5.10;53.10;;;;;;4977026;28;20030;-91
2022/03/08 01:37:34;;;;;;;1999.90;999.90;;;5.20;53.10;;;;;;4960150;28;20472;-92
2022/03/08 01:40:01;;;;;;;1999.90;999.90;;;5.10;53.20;;;;;;4976592;28;20047;-91
2022/03/08 01:42:27;;;;;;;1999.90;999.90;;;5.10;53.30;;;;;;4986474;28;20031;-91
2022/03/08 01:44:53;;;;;;;1999.90;999.90;;;5.00;53.30;;;;;;4978714;28;20392;-92
2022/03/08 01:47:22;;;;;;;1999.90;999.90;;;5.00;53.50;;;;;;4950754;28;20038;-91
2022/03/08 01:49:49;;;;;;;1999.90;999.90;;;4.90;53.50;;;;;;4974564;28;20113;-91
2022/03/08 01:52:15;;;;;;;1999.90;999.90;;;4.90;53.60;;;;;;4989763;28;20027;-91
2022/03/08 01:54:43;;;;;;;1999.90;999.90;;;4.80;53.80;;;;;;4995484;28;20035;-91
2022/03/08 01:57:10;;;;;;;1999.90;999.90;;;4.80;54.00;;;;;;4992400;28;20037;-89
2022/03/08 01:59:36;;;;;;;1999.90;999.90;;;4.70;54.10;;;;;;4996782;28;20015;-91
2022/03/08 02:02:02;;;;;;;1999.90;999.90;;;4.70;54.30;;;;;;4987110;28;20035;-91
2022/03/08 02:04:28;;;;;;;16.57;15.77;;;4.70;54.90;;;;;;4974134;28;20038;-89
2022/03/08 02:06:55;;;;;;;16.07;15.27;;;4.60;54.40;;;;;;4971669;28;20035;-93
2022/03/08 02:09:21;;;;;;;1999.90;999.90;;;4.60;54.60;;;;;;4957888;28;20042;-91
2022/03/08 02:11:47;;;;;;;677.90;343.97;;;4.50;54.70;;;;;;4958134;28;20047;-91
2022/03/08 02:14:15;;;;;;;17.63;16.83;;;4.50;54.80;;;;;;4950276;28;20031;-91
2022/03/08 02:16:42;;;;;;;678.83;344.70;;;4.50;54.80;;;;;;4956262;28;20484;-91
2022/03/08 02:19:11;;;;;;;15.37;14.60;;;4.50;55.00;;;;;;4984228;28;20043;-90
2022/03/08 02:21:37;;;;;;;15.43;14.73;;;4.50;55.00;;;;;;4947953;28;20046;-91
2022/03/08 02:24:03;;;;;;;15.03;14.33;;;4.50;55.10;;;;;;4976272;28;20035;-92
2022/03/08 02:26:31;;;;;;;17.70;16.70;;;4.50;55.20;;;;;;4975246;28;20046;-91
2022/03/08 02:28:58;;;;;;;16.70;15.60;;;4.50;55.20;;;;;;4976140;28;20022;-91
2022/03/08 02:31:24;;;;;;;16.13;15.43;;;4.50;55.30;;;;;;4974907;28;20050;-90
2022/03/08 02:33:51;;;;;;;16.77;15.97;;;4.50;55.30;;;;;;4956569;28;20042;-92
2022/03/08 02:36:17;;;;;;;18.80;17.90;;;4.50;55.40;;;;;;4977073;28;20539;-90
2022/03/08 02:38:43;;;;;;;18.37;17.47;;;4.40;55.40;;;;;;4960016;28;20043;-92
2022/03/08 02:41:09;;;;;;;17.43;16.60;;;4.40;55.50;;;;;;4974361;28;20037;-90
2022/03/08 02:43:35;;;;;;;18.30;17.17;;;4.40;55.60;;;;;;4975106;28;20034;-91
2022/03/08 02:46:01;;;;;;;677.73;343.80;;;4.40;55.60;;;;;;4977467;28;20043;-91
2022/03/08 02:48:28;;;;;;;1999.90;999.90;;;4.40;55.60;;;;;;4971205;28;20050;-92
2022/03/08 02:50:54;;;;;;;1999.90;999.90;;;4.40;55.50;;;;;;4949704;28;20490;-91
2022/03/08 02:53:20;;;;;;;1999.90;999.90;;;4.40;55.40;;;;;;4975475;28;20414;-92
2022/03/08 02:55:46;;;;;;;1999.90;999.90;;;4.40;55.40;;;;;;4975935;28;20054;-92
2022/03/08 02:58:13;;;;;;;677.77;343.90;;;4.40;55.40;;;;;;4958887;28;20039;-90
2022/03/08 03:00:39;;;;;;;1999.90;999.90;;;4.40;55.50;;;;;;4956925;28;20529;-91
2022/03/08 03:03:05;;;;;;;678.23;344.23;;;4.40;55.60;;;;;;4971986;28;20041;-91
2022/03/08 03:05:31;;;;;;;16.67;15.87;;;4.40;55.70;;;;;;4939585;28;20059;-91
2022/03/08 03:07:58;;;;;;;17.00;16.20;;;4.40;55.80;;;;;;4968278;28;20484;-90
2022/03/08 03:10:24;;;;;;;1999.90;999.90;;;4.40;56.10;;;;;;4973157;28;20045;-92
2022/03/08 03:12:51;;;;;;;1999.90;999.90;;;4.30;56.10;;;;;;4970368;28;20038;-91
2022/03/08 03:15:18;;;;;;;1999.90;999.90;;;4.30;56.10;;;;;;4953311;28;20035;-91
2022/03/08 03:17:44;;;;;;;678.50;344.50;;;4.30;56.10;;;;;;4970434;28;20091;-92
2022/03/08 03:20:12;;;;;;;16.97;16.07;;;4.30;56.20;;;;;;4958792;28;20034;-92
2022/03/08 03:22:38;;;;;;;678.20;344.30;;;4.30;56.30;;;;;;4958105;28;20059;-91
2022/03/08 03:25:04;;;;;;;17.83;16.93;;;4.30;56.40;;;;;;4952697;28;20054;-91
2022/03/08 03:27:31;;;;;;;1999.90;999.90;;;4.30;56.40;;;;;;4970831;28;20034;-91
2022/03/08 03:29:57;;;;;;;1999.90;999.90;;;4.30;56.40;;;;;;4974107;28;20045;-91
2022/03/08 03:32:23;;;;;;;16.67;15.87;;;4.30;56.40;;;;;;4973003;28;20043;-92
2022/03/08 03:34:49;;;;;;;15.87;15.10;;;4.40;56.50;;;;;;4949721;28;20043;-90
2022/03/08 03:37:16;;;;;;;1999.90;999.90;;;4.30;56.70;;;;;;4957663;28;20042;-91
2022/03/08 03:39:42;;;;;;;1999.90;999.90;;;4.30;56.90;;;;;;4953608;28;20043;-91
2022/03/08 03:42:08;;;;;;;1999.90;999.90;;;4.20;57.10;;;;;;4956400;28;20035;-91
2022/03/08 03:44:34;;;;;;;1999.90;999.90;;;4.20;57.20;;;;;;4975821;28;20038;-92
2022/03/08 03:47:00;;;;;;;1999.90;999.90;;;4.20;57.30;;;;;;4971510;28;20043;-92
2022/03/08 03:49:26;;;;;;;1999.90;999.90;;;4.20;57.40;;;;;;4959135;28;20400;-91
2022/03/08 03:51:53;;;;;;;1999.90;999.90;;;4.20;57.50;;;;;;4973731;28;20476;-91
2022/03/08 03:54:20;;;;;;;1999.90;999.90;;;4.20;57.40;;;;;;4971993;28;20030;-90
2022/03/08 03:56:46;;;;;;;16.57;15.77;;;4.20;57.50;;;;;;4973283;28;20023;-91
2022/03/08 03:59:12;;;;;;;1999.90;999.90;;;4.20;57.60;;;;;;4955104;28;20496;-91
2022/03/08 04:01:38;;;;;;;1999.90;999.90;;;4.20;57.70;;;;;;4957520;28;20055;-91
2022/03/08 04:04:05;;;;;;;1999.90;999.90;;;4.20;57.80;;;;;;4974352;28;20054;-91
2022/03/08 04:06:32;;;;;;;1999.90;999.90;;;4.20;57.80;;;;;;4958206;28;20034;-90
2022/03/08 04:08:59;;;;;;;1999.90;999.90;;;4.30;57.80;;;;;;4972330;28;20034;-91
2022/03/08 04:11:25;;;;;;;1999.90;999.90;;;4.30;57.80;;;;;;4972801;28;20035;-91
2022/03/08 04:13:51;;;;;;;1999.90;999.90;;;4.30;57.80;;;;;;4956232;28;20034;-92
2022/03/08 04:16:17;;;;;;;1999.90;999.90;;;4.40;57.90;;;;;;4940770;28;20027;-92
2022/03/08 04:18:44;;;;;;;1999.90;999.90;;;4.40;57.90;;;;;;4954440;28;20034;-91
2022/03/08 04:21:10;;;;;;;1999.90;999.90;;;4.40;57.80;;;;;;4973271;28;20031;-90
2022/03/08 04:23:36;;;;;;;1999.90;999.90;;;4.50;58.00;;;;;;4971683;28;20391;-92
2022/03/08 04:26:02;;;;;;;1999.90;999.90;;;4.50;58.10;;;;;;4971868;28;20034;-91
2022/03/08 04:28:28;;;;;;;1999.90;999.90;;;4.50;58.10;;;;;;4974327;28;20038;-92
2022/03/08 04:30:54;;;;;;;1999.90;999.90;;;4.60;58.10;;;;;;4974104;28;20476;-92
2022/03/08 04:33:20;;;;;;;1999.90;999.90;;;4.60;58.00;;;;;;4973194;28;20047;-90
2022/03/08 04:35:46;;;;;;;1999.90;999.90;;;4.60;58.20;;;;;;4971665;28;20033;-90
2022/03/08 04:38:12;;;;;;;1999.90;999.90;;;4.70;58.30;;;;;;4960030;28;20038;-91
2022/03/08 04:40:38;;;;;;;1999.90;999.90;;;4.70;58.10;;;;;;4959392;28;20026;-91
2022/03/08 04:43:05;;;;;;;1999.90;999.90;;;4.80;58.10;;;;;;4977371;28;20037;-90
2022/03/08 04:45:31;;;;;;;1999.90;999.90;;;4.80;58.70;;;;;;4973714;28;20488;-92
2022/03/08 04:47:57;;;;;;;1999.90;999.90;;;4.90;58.00;;;;;;4971767;28;20022;-90
2022/03/08 04:50:23;;;;;;;1999.90;999.90;;;4.90;58.00;;;;;;4971025;28;20031;-91
2022/03/08 04:52:49;;;;;;;1999.90;999.90;;;4.90;58.00;;;;;;4972963;28;20492;-86
2022/03/08 04:55:16;;;;;;;1999.90;999.90;;;4.90;58.10;;;;;;4960324;28;20019;-85
2022/03/08 04:57:42;;;;;;;1999.90;999.90;;;5.00;58.30;;;;;;4957591;28;20408;-87
2022/03/08 05:00:11;;;;;;;1999.90;999.90;;;5.00;58.50;;;;;;4957159;28;20035;-87
2022/03/08 05:02:41;;;;;;;1999.90;999.90;;;5.00;58.50;;;;;;4973826;28;20314;-89
2022/03/08 05:05:08;;;;;;;1999.90;999.90;;;5.00;58.60;;;;;;4956234;28;20034;-89
2022/03/08 05:07:35;;;;;;;1999.90;999.90;;;5.10;58.70;;;;;;4957977;28;20030;-88
2022/03/08 05:10:05;;;;;;;1999.90;999.90;;;5.10;58.80;;;;;;4974808;28;20035;-90
2022/03/08 05:12:32;;;;;;;1999.90;999.90;;;5.10;58.80;;;;;;4957313;28;20073;-92
2022/03/08 05:14:58;;;;;;;1999.90;999.90;;;5.10;59.00;;;;;;4972341;28;20089;-89
2022/03/08 05:17:24;;;;;;;1999.90;999.90;;;5.10;59.20;;;;;;4972107;28;20035;-89
2022/03/08 05:19:50;;;;;;;1999.90;999.90;;;5.10;59.40;;;;;;4957049;28;20035;-91
2022/03/08 05:22:16;;;;;;;1999.90;999.90;;;5.10;59.60;;;;;;4991566;28;20058;-91
2022/03/08 05:24:42;;;;;;;1999.90;999.90;;;5.10;59.70;;;;;;4973031;28;20031;-91
2022/03/08 05:27:08;;;;;;;1999.90;999.90;;;5.10;59.80;;;;;;4958619;28;20354;-91
2022/03/08 05:29:34;;;;;;;1999.90;999.90;;;5.10;59.60;;;;;;4972878;28;20035;-88
2022/03/08 05:32:00;;;;;;;1999.90;999.90;;;5.10;59.70;;;;;;4974775;28;20242;-90
2022/03/08 05:34:27;;;;;;;1999.90;999.90;;;5.10;59.70;;;;;;4976841;28;20031;-88
2022/03/08 05:36:53;;;;;;;1999.90;999.90;;;5.10;59.70;;;;;;4976424;28;20472;-89
2022/03/08 05:39:19;;;;;;;1999.90;999.90;;;5.10;59.80;;;;;;4954313;29;20036;-87
2022/03/08 05:41:45;;;;;;;1999.90;999.90;;;5.10;59.80;;;;;;4965207;28;20388;-89
2022/03/08 05:44:11;;;;;;;1999.90;999.90;;;5.20;59.90;;;;;;4940380;28;20039;-90
2022/03/08 05:46:37;;;;;;;1999.90;999.90;;;5.20;60.00;;;;;;4958324;28;20042;-89
2022/03/08 05:49:03;;;;;;;1999.90;999.90;;;5.20;60.00;;;;;;4978422;28;20047;-91
2022/03/08 05:51:29;;;;;;;1999.90;999.90;;;5.20;60.00;;;;;;4980814;28;20034;-89
2022/03/08 05:53:55;;;;;;;1999.90;999.90;;;5.20;59.80;;;;;;4982046;28;20037;-90
2022/03/08 05:56:22;;;;;;;1999.90;999.90;;;5.30;59.80;;;;;;4964775;28;20041;-92
2022/03/08 05:58:48;;;;;;;1999.90;999.90;;;5.30;59.70;;;;;;4982338;28;20042;-90
2022/03/08 06:01:14;;;;;;;1999.90;999.90;;;5.30;59.70;;;;;;4981351;28;20035;-91
2022/03/08 06:03:40;;;;;;;1999.90;999.90;;;5.30;59.70;;;;;;4964619;28;20035;-90
2022/03/08 06:06:06;;;;;;;1999.90;999.90;;;5.30;59.70;;;;;;4979621;28;20111;-91
2022/03/08 06:08:32;;;;;;;1999.90;999.90;;;5.40;59.70;;;;;;4947871;28;20046;-91
2022/03/08 06:10:58;;;;;;;1999.90;999.90;;;5.40;59.70;;;;;;4963775;28;20030;-91
2022/03/08 06:13:24;;;;;;;1999.90;999.90;;;5.40;59.60;;;;;;4993712;28;20424;-90
2022/03/08 06:15:50;;;;;;;1999.90;999.90;;;5.40;59.50;;;;;;4975468;28;20031;-90
2022/03/08 06:18:17;;;;;;;1999.90;999.90;;;5.50;59.50;;;;;;4992274;28;20046;-90
2022/03/08 06:20:43;;;;;;;1999.90;999.90;;;5.50;59.60;;;;;;4991930;28;20045;-91
2022/03/08 06:23:09;;;;;;;1999.90;999.90;;;5.50;59.60;;;;;;4956689;28;20047;-92
2022/03/08 06:25:35;;;;;;;1999.90;999.90;;;5.50;59.60;;;;;;4975028;28;20023;-91
2022/03/08 06:28:02;;;;;;;1999.90;999.90;;;5.50;59.60;;;;;;4993508;28;20037;-89
2022/03/08 06:30:28;;;;;;;1999.90;999.90;;;5.60;59.70;;;;;;4960765;28;20031;-91
2022/03/08 06:32:54;;;;;;;1999.90;999.90;;;5.60;59.70;;;;;;4993421;28;20041;-90
2022/03/08 06:35:20;;;;;;;1999.90;999.90;;;5.60;59.60;;;;;;4993518;28;20045;-91
2022/03/08 06:37:46;;;;;;;1999.90;999.90;;;5.60;59.60;;;;;;4992018;28;20043;-92
2022/03/08 06:40:12;;;;;;;1999.90;999.90;;;5.70;59.80;;;;;;4992723;28;20494;-89
2022/03/08 06:42:38;;;;;;;1999.90;999.90;;;5.70;59.80;;;;;;4976676;28;20049;-90
2022/03/08 06:45:06;;;;;;;1999.90;999.90;;;5.70;59.80;;;;;;4977238;28;20041;-90
2022/03/08 06:47:32;;;;;;;1999.90;999.90;;;5.70;59.70;;;;;;4993153;28;20027;-90
2022/03/08 06:49:58;;;;;;;1999.90;999.90;;;5.80;59.70;;;;;;4976754;28;20045;-90
2022/03/08 06:52:24;;;;;;;1999.90;999.90;;;5.80;59.70;;;;;;4992187;28;20034;-90
2022/03/08 06:54:50;;;;;;;1999.90;999.90;;;5.80;59.60;;;;;;4976434;28;20030;-91
2022/03/08 06:57:16;;;;;;;1999.90;999.90;;;5.90;59.60;;;;;;4961258;28;20050;-88
2022/03/08 06:59:43;;;;;;;1999.90;999.90;;;5.90;59.60;;;;;;4957392;28;20490;-91
2022/03/08 07:02:09;;;;;;;1999.90;999.90;;;5.90;59.70;;;;;;4972428;28;20043;-90
2022/03/08 07:04:35;;;;;;;1999.90;999.90;;;5.90;59.70;;;;;;4955890;28;20034;-88
2022/03/08 07:07:01;;;;;;;1999.90;999.90;;;5.90;59.70;;;;;;4972491;28;20026;-88
2022/03/08 07:09:27;;;;;;;1999.90;999.90;;;5.90;59.70;;;;;;4969706;28;20018;-86
2022/03/08 07:11:53;;;;;;;1999.90;999.90;;;6.00;59.70;;;;;;4971706;28;20034;-91
2022/03/08 07:14:19;;;;;;;1999.90;999.90;;;6.00;59.70;;;;;;4970178;28;20035;-87
2022/03/08 07:16:46;;;;;;;1999.90;999.90;;;6.10;59.60;;;;;;4971534;28;20091;-85
2022/03/08 07:19:13;;;;;;;1999.90;999.90;;;6.10;59.60;;;;;;4956334;28;20049;-92
2022/03/08 07:21:40;;;;;;;1999.90;999.90;;;6.20;59.50;;;;;;4974964;28;20117;-87
2022/03/08 07:24:06;;;;;;;1999.90;999.90;;;6.20;59.60;;;;;;4956131;28;20042;-88
2022/03/08 07:26:32;;;;;;;1999.90;999.90;;;6.30;59.60;;;;;;4956161;28;20049;-90
2022/03/08 07:28:58;;;;;;;1999.90;999.90;;;6.40;59.40;;;;;;4971896;28;20369;-90
2022/03/08 07:31:24;;;;;;;1999.90;999.90;;;6.40;59.50;;;;;;4974134;28;20039;-89
2022/03/08 07:33:51;;;;;;;1999.90;999.90;;;6.40;59.60;;;;;;4969873;28;20049;-88
2022/03/08 07:36:17;;;;;;;1999.90;999.90;;;6.50;59.70;;;;;;4969632;28;20047;-87
2022/03/08 07:38:44;;;;;;;1999.90;999.90;;;6.60;59.80;;;;;;4954625;28;20306;-88
2022/03/08 07:41:10;;;;;;;1999.90;999.90;;;6.60;59.70;;;;;;4970706;28;20035;-87
2022/03/08 07:43:36;;;;;;;1999.90;999.90;;;6.70;59.80;;;;;;4953550;28;20043;-86
2022/03/08 07:46:06;;;;;;;1999.90;999.90;;;6.70;59.70;;;;;;4968501;28;20407;-88
2022/03/08 07:48:32;;;;;;;1999.90;999.90;;;6.80;59.80;;;;;;4953534;28;20035;-86
2022/03/08 07:50:58;;;;;;;1999.90;999.90;;;6.80;59.70;;;;;;4955305;28;20034;-86
2022/03/08 07:53:25;;;;;;;1999.90;999.90;;;6.80;59.70;;;;;;4970469;28;20488;-85
2022/03/08 07:55:51;;;;;;;1999.90;999.90;;;6.90;59.80;;;;;;4955747;28;20035;-89
2022/03/08 07:58:17;;;;;;;1999.90;999.90;;;6.90;59.70;;;;;;4971783;28;20361;-87
2022/03/08 08:00:43;;;;;;;1999.90;999.90;;;6.90;59.70;;;;;;4969909;28;20511;-85
2022/03/08 08:03:09;;;;;;;1999.90;999.90;;;7.00;59.80;;;;;;4970353;28;20035;-85
2022/03/08 08:05:36;;;;;;;1999.90;999.90;;;7.00;59.80;;;;;;4959914;28;20023;-86
2022/03/08 08:08:03;;;;;;;1999.90;999.90;;;7.00;59.70;;;;;;4970975;28;20035;-86
2022/03/08 08:10:29;;;;;;;1999.90;999.90;;;7.00;59.70;;;;;;4955734;28;20023;-86
2022/03/08 08:12:55;;;;;;;1999.90;999.90;;;7.00;59.70;;;;;;4954110;28;20043;-84
2022/03/08 08:15:21;;;;;;;1999.90;999.90;;;7.10;59.70;;;;;;4968573;28;20034;-85
2022/03/08 08:17:48;;;;;;;1999.90;999.90;;;7.10;59.70;;;;;;4939182;28;20050;-86
2022/03/08 08:20:14;;;;;;;1999.90;999.90;;;7.10;59.70;;;;;;4969927;28;20043;-85
2022/03/08 08:22:40;;;;;;;1999.90;999.90;;;7.20;59.70;;;;;;4954492;28;20034;-84
2022/03/08 08:25:07;;;;;;;1999.90;999.90;;;7.20;59.70;;;;;;4971547;28;20468;-86
2022/03/08 08:27:33;;;;;;;1999.90;999.90;;;7.20;59.70;;;;;;4968817;28;20046;-85
2022/03/08 08:29:59;;;;;;;1999.90;999.90;;;7.30;59.70;;;;;;4954597;28;20047;-86
2022/03/08 08:32:25;;;;;;;1999.90;999.90;;;7.30;59.70;;;;;;4939142;28;20051;-86
2022/03/08 08:34:51;;;;;;;1999.90;999.90;;;7.30;59.70;;;;;;4954656;28;20465;-83
2022/03/08 08:37:17;;;;;;;1999.90;999.90;;;7.40;59.60;;;;;;4955986;28;20030;-82
2022/03/08 08:39:43;;;;;;;1999.90;999.90;;;7.50;60.20;;;;;;4954755;28;20053;-85
2022/03/08 08:42:09;;;;;;;1999.90;999.90;;;7.60;59.50;;;;;;4952882;28;20046;-85
2022/03/08 08:44:35;;;;;;;1999.90;999.90;;;7.60;59.50;;;;;;4969875;28;20034;-85
2022/03/08 08:47:02;;;;;;;1999.90;999.90;;;7.70;60.10;;;;;;4971122;28;20058;-90
2022/03/08 08:49:28;;;;;;;1999.90;999.90;;;7.70;59.40;;;;;;4955059;28;20042;-92
2022/03/08 08:51:55;;;;;;;1999.90;999.90;;;7.80;59.40;;;;;;4954289;28;20484;-90
2022/03/08 08:54:22;;;;;;;1999.90;999.90;;;7.80;59.40;;;;;;4969922;28;20067;-90
2022/03/08 08:56:48;;;;;;;1999.90;999.90;;;7.90;59.30;;;;;;4954255;28;20038;-84
2022/03/08 08:59:15;;;;;;;1999.90;999.90;;;8.00;59.20;;;;;;4970151;28;20043;-83
2022/03/08 09:01:41;;;;;;;1999.90;999.90;;;8.00;59.20;;;;;;4935263;28;20040;-82
2022/03/08 09:04:07;;;;;;;1999.90;999.90;;;8.10;59.20;;;;;;4969210;28;20038;-82
2022/03/08 09:06:33;;;;;;;1999.90;999.90;;;8.10;59.10;;;;;;4968175;28;20042;-83
2022/03/08 09:08:59;;;;;;;1999.90;999.90;;;8.10;59.10;;;;;;4968437;28;20038;-82
2022/03/08 09:11:25;;;;;;;1999.90;999.90;;;8.20;59.20;;;;;;4970665;28;20046;-91
2022/03/08 09:13:52;;;;;;;1999.90;999.90;;;8.20;59.10;;;;;;4938259;28;20051;-90
2022/03/08 09:16:18;;;;;;;1999.90;999.90;;;8.20;59.00;;;;;;4969021;28;20039;-90
2022/03/08 09:18:44;;;;;;;1999.90;999.90;;;8.30;59.00;;;;;;4969926;28;20042;-90
2022/03/08 09:21:11;;;;;;;1999.90;999.90;;;8.40;59.00;;;;;;4969420;28;20039;-89
2022/03/08 09:23:38;;;;;;;1999.90;999.90;;;8.40;58.90;;;;;;4969157;28;20035;-89
2022/03/08 09:26:04;;;;;;;1999.90;999.90;;;8.50;58.80;;;;;;4972088;28;20370;-89
2022/03/08 09:28:31;;;;;;;1999.90;999.90;;;8.50;58.80;;;;;;4974200;28;20034;-91
2022/03/08 09:30:59;;;;;;;1999.90;999.90;;;8.60;58.80;;;;;;4970696;28;20039;-91
2022/03/08 09:33:25;;;;;;;1999.90;999.90;;;8.60;58.70;;;;;;4972991;28;20054;-91
2022/03/08 09:35:51;;;;;;;1999.90;999.90;;;8.60;58.70;;;;;;4972545;28;20027;-91
2022/03/08 09:38:17;;;;;;;1999.90;999.90;;;8.70;58.70;;;;;;4974116;28;20051;-91
2022/03/08 09:40:44;;;;;;;1999.90;999.90;;;8.70;58.70;;;;;;4957288;28;20276;-92
2022/03/08 09:43:10;;;;;;;1999.90;999.90;;;8.70;58.70;;;;;;4974117;28;20049;-89
2022/03/08 09:45:36;;;;;;;1999.90;999.90;;;8.80;58.70;;;;;;4972810;28;20035;-91
2022/03/08 09:48:02;;;;;;;1999.90;999.90;;;8.80;58.70;;;;;;4972518;28;20091;-91
2022/03/08 09:50:31;;;;;;;1999.90;999.90;;;8.90;58.70;;;;;;4973354;28;20031;-91
2022/03/08 09:52:57;;;;;;;1999.90;999.90;;;9.00;58.60;;;;;;4966143;28;20031;-90
2022/03/08 09:55:25;;;;;;;1999.90;999.90;;;9.10;58.40;;;;;;4958339;28;20452;-90
2022/03/08 09:57:54;;;;;;;1999.90;999.90;;;9.20;58.30;;;;;;4965419;28;20031;-90
2022/03/08 10:00:23;;;;;;;1999.90;999.90;;;9.30;58.20;;;;;;4966912;28;20034;-90
2022/03/08 10:02:52;;;;;;;1999.90;999.90;;;9.50;58.10;;;;;;4966011;28;20389;-91
2022/03/08 10:05:29;;;;;;;1999.90;999.90;;;9.80;57.90;;;;;;4972958;28;20030;-92
2022/03/08 10:08:13;;;;;;;1999.90;999.90;;;9.80;57.70;;;;;;4942336;28;20481;-91
2022/03/08 10:10:58;;;;;;;1999.90;999.90;;;9.80;57.70;;;;;;4970881;28;20369;-91
2022/03/08 10:13:31;;;;;;;1999.90;999.90;;;9.80;57.80;;;;;;4940157;28;20046;-91
2022/03/08 10:16:28;;;;;;;1999.90;999.90;;;9.70;57.90;;;;;;4967354;28;20050;-90
2022/03/08 10:19:01;;;;;;;1999.90;999.90;;;9.70;58.00;;;;;;4972807;28;20045;-90
2022/03/08 10:21:36;;;;;;;1999.90;999.90;;;9.70;58.10;;;;;;4972930;28;20380;-90
2022/03/08 10:24:13;;;;;;;1999.90;999.90;;;9.60;58.20;;;;;;4972205;28;20023;-91
2022/03/08 10:26:48;;;;;;;1999.90;999.90;;;9.60;58.30;;;;;;4972011;28;20030;-91
2022/03/08 10:29:40;;;;;;;1999.90;999.90;;;9.70;58.30;;;;;;4958340;28;20046;-91
2022/03/08 10:32:07;;;;;;;1999.90;999.90;;;9.70;58.20;;;;;;4963601;28;20404;-90
2022/03/08 10:34:34;;;;;;;1999.90;999.90;;;9.90;58.20;;;;;;4973502;28;20038;-92
2022/03/08 10:37:15;;;;;;;1999.90;999.90;;;10.00;58.00;;;;;;4937901;28;20035;-92
2022/03/08 10:39:51;;;;;;;1999.90;999.90;;;10.10;57.80;;;;;;4973641;28;20046;-93
2022/03/08 10:42:21;;;;;;;1999.90;999.90;;;10.20;57.70;;;;;;4970668;28;20034;-81
2022/03/08 10:44:48;;;;;;;1999.90;999.90;;;10.30;57.60;;;;;;4970479;28;20392;-87
2022/03/08 10:47:14;;;;;;;1999.90;999.90;;;10.50;57.60;;;;;;4970670;28;20472;-89
2022/03/08 10:49:51;;;;;;;1999.90;999.90;;;10.60;57.50;;;;;;4972442;28;20035;-89
2022/03/08 10:52:17;;;;;;;1999.90;999.90;;;10.80;57.30;;;;;;4972341;28;20031;-90
2022/03/08 10:54:43;;;;;;;1999.90;999.90;;;11.00;57.20;;;;;;4969290;28;20412;-88
2022/03/08 10:57:10;;;;;;;1999.90;999.90;;;11.20;57.00;;;;;;4942152;28;20031;-88
2022/03/08 10:59:36;;;;;;;1999.90;999.90;;;11.40;56.80;;;;;;4971737;28;20023;-93
2022/03/08 11:02:23;;;;;;;1999.90;999.90;;;11.60;56.60;;;;;;4968208;28;20039;-91
2022/03/08 11:05:09;;;;;;;1999.90;999.90;;;12.00;56.30;;;;;;4970077;28;20046;-87
2022/03/08 11:07:38;;;;;;;1999.90;999.90;;;12.30;56.10;;;;;;4963803;28;20420;-89
2022/03/08 11:10:06;;;;;;;1999.90;999.90;;;12.40;55.90;;;;;;4971379;28;20041;-88
2022/03/08 11:12:32;;;;;;;1999.90;999.90;;;12.50;55.80;;;;;;4969414;28;20031;-88
2022/03/08 11:14:58;;;;;;;1999.90;999.90;;;12.60;55.80;;;;;;4970822;28;20042;-84
2022/03/08 11:17:24;;;;;;;1999.90;999.90;;;12.70;55.90;;;;;;4969648;28;20038;-88
2022/03/08 11:19:50;;;;;;;1999.90;999.90;;;12.70;56.00;;;;;;4970805;28;20386;-88
2022/03/08 11:22:17;;;;;;;1999.90;999.90;;;12.70;56.00;;;;;;4987147;28;20041;-87
2022/03/08 11:24:44;;;;;;;1999.90;999.90;;;12.70;56.10;;;;;;4969413;28;20031;-87
2022/03/08 11:27:12;;;;;;;1999.90;999.90;;;12.70;56.30;;;;;;4969842;28;20500;-86
2022/03/08 11:29:38;;;;;;;1999.90;999.90;;;12.60;56.30;;;;;;4952721;28;20042;-84
2022/03/08 11:32:05;;;;;;;1999.90;999.90;;;12.60;56.40;;;;;;4969439;28;20039;-86
2022/03/08 11:34:38;;;;;;;1999.90;999.90;;;12.60;56.50;;;;;;4955390;28;20051;-86
2022/03/08 11:37:11;;;;;;;1999.90;999.90;;;12.50;56.50;;;;;;4969029;28;20046;-87
2022/03/08 11:39:40;;;;;;;1999.90;999.90;;;12.50;56.60;;;;;;4954313;28;20043;-85
2022/03/08 11:42:26;;;;;;;1999.90;999.90;;;12.60;56.70;;;;;;4954570;28;20062;-91
2022/03/08 11:45:00;;;;;;;1999.90;999.90;;;12.60;56.60;;;;;;4972547;28;20027;-87
2022/03/08 11:47:42;;;;;;;1999.90;999.90;;;12.70;56.50;;;;;;4970051;28;20042;-88
2022/03/08 11:50:39;;;;;;;1999.90;999.90;;;12.80;56.40;;;;;;4958273;28;20503;-88
2022/03/08 11:53:13;;;;;;;1999.90;999.90;;;12.90;56.40;;;;;;4954619;28;20396;-87
2022/03/08 11:55:43;;;;;;;1999.90;999.90;;;12.90;56.30;;;;;;4940183;28;20091;-89
2022/03/08 11:58:20;;;;;;;1999.90;999.90;;;13.00;56.40;;;;;;4969975;28;20031;-86
2022/03/08 12:00:52;;;;;;;1999.90;999.90;;;13.00;56.40;;;;;;4955294;28;20038;-84
2022/03/08 12:03:24;;;;;;;1999.90;999.90;;;13.00;56.50;;;;;;4967614;28;20023;-85
2022/03/08 12:06:00;;;;;;;1999.90;999.90;;;12.90;56.50;;;;;;4970529;28;20031;-84
2022/03/08 12:08:29;;;;;;;1999.90;999.90;;;13.00;56.60;;;;;;4970763;28;20480;-85
2022/03/08 12:11:30;;;;;;;1999.90;999.90;;;13.10;56.60;;;;;;4971445;28;20039;-86